Time;durP1;ratioP1;P1;durP2;ratioP2;P2;SDS_P1;SDS_P2;PMS_P1;PMS_P2;Temp;Humidity;BMP_temperature;BMP_pressure;BME280_temperature;BME280_humidity;BME280_pressure;Samples;Min_cycle;Max_cycle;Signal;HPM_P1;HPM_P2
2021/12/16 00:06:51;;;;;;;16.63;10.18;;;;;;;;;;4953651;28;20027;-86
2021/12/16 00:09:06;;;;;;;17.98;11.00;;;;;;;;;;4960375;28;20058;-85
2021/12/16 00:33:30;;;;;;;17.95;10.50;;;;;;;;;;4962291;28;20106;-86
2021/12/16 00:35:55;;;;;;;15.63;9.75;;;;;;;;;;4945440;28;20393;-85
2021/12/16 00:38:21;;;;;;;19.65;11.07;;;;;;;;;;4968698;28;20019;-86
2021/12/16 00:40:46;;;;;;;19.55;10.57;;;;;;;;;;4946758;28;20038;-88
2021/12/16 00:43:25;;;;;;;21.05;11.52;;;;;;;;;;4948804;28;20034;-87
2021/12/16 00:54:12;;;;;;;18.85;11.20;;;;;;;;;;4961384;28;20038;-87
2021/12/16 00:56:50;;;;;;;19.70;10.52;;;;;;;;;;4944362;28;20019;-87
2021/12/16 00:59:18;;;;;;;19.23;11.02;;;;;;;;;;4961428;28;20031;-88
2021/12/16 01:34:19;;;;;;;18.60;9.55;;;;;;;;;;4960977;28;20094;-86
2021/12/16 01:55:19;;;;;;;15.48;8.93;;;;;;;;;;4966402;28;20027;-85
2021/12/16 01:57:50;;;;;;;15.77;8.73;;;;;;;;;;5011808;23;20508;-86
2021/12/16 02:00:27;;;;;;;14.80;8.93;;;;;;;;;;4973841;28;20019;-85
2021/12/16 02:03:02;;;;;;;13.77;8.75;;;;;;;;;;4959258;28;20086;-86
2021/12/16 02:06:03;;;;;;;13.02;8.57;;;;;;;;;;4940090;28;20524;-86
2021/12/16 02:08:33;;;;;;;13.50;8.32;;;;;;;;;;4922158;29;20695;-86
2021/12/16 02:29:24;;;;;;;15.25;8.63;;;;;;;;;;4940689;29;20050;-86
2021/12/16 02:32:11;;;;;;;11.77;7.63;;;;;;;;;;4922767;29;20031;-86
2021/12/16 02:37:02;;;;;;;13.07;8.40;;;;;;;;;;4944252;29;20046;-86
2021/12/16 02:39:32;;;;;;;12.40;7.88;;;;;;;;;;4922526;29;20035;-86
2021/12/16 02:51:04;;;;;;;13.40;8.00;;;;;;;;;;4946853;29;20114;-86
2021/12/16 02:53:30;;;;;;;13.15;8.40;;;;;;;;;;4922561;29;20050;-86
2021/12/16 02:55:56;;;;;;;14.20;8.63;;;;;;;;;;4923084;29;20090;-86
2021/12/16 02:58:27;;;;;;;13.43;8.60;;;;;;;;;;4929699;29;20032;-86
2021/12/16 03:01:04;;;;;;;14.40;8.13;;;;;;;;;;4940630;29;20027;-86
2021/12/16 03:03:30;;;;;;;12.43;8.30;;;;;;;;;;4939323;29;20047;-85
2021/12/16 03:08:26;;;;;;;12.27;8.23;;;;;;;;;;4981537;28;20039;-86
2021/12/16 03:11:39;;;;;;;15.88;8.23;;;;;;;;;;4959085;28;20042;-86
2021/12/16 03:17:21;;;;;;;13.45;8.45;;;;;;;;;;4980234;28;20037;-86
2021/12/16 03:25:54;;;;;;;13.15;8.45;;;;;;;;;;4995642;28;20102;-86
2021/12/16 03:37:31;;;;;;;14.15;8.43;;;;;;;;;;5000189;28;20037;-86
2021/12/16 03:40:16;;;;;;;14.82;9.23;;;;;;;;;;4978953;28;20396;-86
2021/12/16 03:43:01;;;;;;;13.88;8.93;;;;;;;;;;4977719;28;20014;-85
2021/12/16 03:49:11;;;;;;;13.88;9.02;;;;;;;;;;4996790;28;20027;-86
2021/12/16 03:51:42;;;;;;;15.68;8.50;;;;;;;;;;4976559;28;20094;-85
2021/12/16 03:54:20;;;;;;;14.02;8.43;;;;;;;;;;5002625;28;20512;-86
2021/12/16 03:56:47;;;;;;;17.40;10.18;;;;;;;;;;4979972;28;20049;-85
2021/12/16 03:59:16;;;;;;;15.88;9.65;;;;;;;;;;4980136;28;20490;-85
2021/12/16 04:01:42;;;;;;;15.38;9.50;;;;;;;;;;4978574;28;20026;-85
2021/12/16 04:04:08;;;;;;;14.55;8.95;;;;;;;;;;4979151;28;20022;-85
2021/12/16 04:06:36;;;;;;;18.08;9.93;;;;;;;;;;4938564;28;1254844;-85
2021/12/16 04:09:06;;;;;;;17.10;9.73;;;;;;;;;;4979125;28;20023;-86
2021/12/16 04:11:39;;;;;;;14.45;8.82;;;;;;;;;;4997580;28;20052;-88
2021/12/16 04:14:08;;;;;;;14.82;9.43;;;;;;;;;;4982029;28;20037;-87
2021/12/16 04:16:38;;;;;;;14.48;9.35;;;;;;;;;;4997280;28;20057;-87
2021/12/16 04:19:09;;;;;;;13.50;8.18;;;;;;;;;;4980179;28;20377;-87
2021/12/16 04:21:39;;;;;;;15.07;9.10;;;;;;;;;;4985012;28;20037;-86
2021/12/16 04:24:06;;;;;;;14.82;8.88;;;;;;;;;;4998992;28;20113;-85
2021/12/16 04:26:32;;;;;;;15.48;10.05;;;;;;;;;;4979601;28;20030;-87
2021/12/16 04:28:58;;;;;;;16.33;9.48;;;;;;;;;;4995601;28;20447;-86
2021/12/16 04:31:25;;;;;;;16.88;10.18;;;;;;;;;;4982025;28;20160;-86
2021/12/16 04:33:50;;;;;;;16.90;9.88;;;;;;;;;;4997136;28;20034;-86
2021/12/16 04:36:17;;;;;;;14.95;9.13;;;;;;;;;;4983741;28;20373;-86
2021/12/16 04:38:45;;;;;;;16.77;9.63;;;;;;;;;;4989417;28;20039;-86
2021/12/16 04:41:12;;;;;;;16.38;9.50;;;;;;;;;;5001988;28;20034;-86
2021/12/16 04:43:43;;;;;;;17.60;9.27;;;;;;;;;;4997031;28;20022;-86
2021/12/16 04:46:13;;;;;;;17.33;10.32;;;;;;;;;;4980022;28;20053;-86
2021/12/16 04:48:44;;;;;;;19.42;10.43;;;;;;;;;;4984330;28;20023;-86
2021/12/16 04:51:10;;;;;;;17.97;10.40;;;;;;;;;;4976338;28;20026;-83
2021/12/16 04:53:36;;;;;;;18.15;10.30;;;;;;;;;;4986128;28;20350;-84
2021/12/16 04:56:03;;;;;;;16.27;9.55;;;;;;;;;;5000860;28;20496;-85
2021/12/16 04:58:29;;;;;;;18.33;11.15;;;;;;;;;;4999626;28;20022;-85
2021/12/16 05:00:55;;;;;;;17.92;10.00;;;;;;;;;;4985811;28;20108;-84
2021/12/16 05:03:22;;;;;;;20.42;11.32;;;;;;;;;;4980829;28;20551;-86
2021/12/16 05:05:48;;;;;;;19.70;11.02;;;;;;;;;;4979281;28;20025;-84
2021/12/16 05:08:13;;;;;;;17.15;10.48;;;;;;;;;;4996017;28;20027;-84
2021/12/16 05:10:39;;;;;;;15.43;10.32;;;;;;;;;;4980821;28;20029;-85
2021/12/16 05:13:05;;;;;;;16.23;9.27;;;;;;;;;;4980604;28;20018;-87
2021/12/16 05:15:34;;;;;;;18.10;10.65;;;;;;;;;;4976138;28;20088;-86
2021/12/16 05:18:04;;;;;;;17.52;10.05;;;;;;;;;;4980871;28;20033;-86
2021/12/16 05:20:34;;;;;;;19.70;10.40;;;;;;;;;;4978063;28;20036;-87
2021/12/16 05:28:17;;;;;;;13.63;8.75;;;;;;;;;;4999369;28;20021;-85
2021/12/16 05:30:43;;;;;;;14.32;8.43;;;;;;;;;;4975100;28;20022;-86
2021/12/16 05:33:09;;;;;;;18.17;9.32;;;;;;;;;;4979944;28;20093;-86
2021/12/16 05:35:36;;;;;;;18.27;10.10;;;;;;;;;;4977525;28;20028;-86
2021/12/16 05:38:02;;;;;;;15.07;9.35;;;;;;;;;;4970024;28;20042;-86
2021/12/16 05:40:29;;;;;;;18.25;10.07;;;;;;;;;;4976308;28;20053;-87
2021/12/16 05:42:58;;;;;;;18.77;9.52;;;;;;;;;;4964232;28;20125;-88
2021/12/16 05:45:24;;;;;;;14.05;8.45;;;;;;;;;;4972602;28;20034;-87
2021/12/16 05:47:54;;;;;;;15.70;9.15;;;;;;;;;;4961239;28;20075;-86
2021/12/16 05:50:21;;;;;;;15.23;8.20;;;;;;;;;;4962848;28;20535;-86
2021/12/16 05:52:46;;;;;;;17.83;9.80;;;;;;;;;;4962986;28;20056;-89
2021/12/16 05:55:14;;;;;;;14.35;9.40;;;;;;;;;;4983604;28;20025;-86
2021/12/16 05:57:40;;;;;;;14.27;8.45;;;;;;;;;;4967661;28;20033;-89
2021/12/16 06:00:13;;;;;;;16.33;9.55;;;;;;;;;;4960499;28;20433;-89
2021/12/16 06:02:40;;;;;;;14.05;8.88;;;;;;;;;;4969471;28;20038;-85
2021/12/16 06:05:06;;;;;;;17.50;9.50;;;;;;;;;;4965150;28;20420;-86
2021/12/16 06:07:32;;;;;;;15.63;9.57;;;;;;;;;;4976786;28;21366;-82
2021/12/16 06:09:57;;;;;;;15.25;8.93;;;;;;;;;;4976427;28;20032;-88
2021/12/16 06:12:24;;;;;;;19.00;9.85;;;;;;;;;;4959739;28;20026;-87
2021/12/16 06:15:11;;;;;;;16.58;9.57;;;;;;;;;;4985524;28;20026;-88
2021/12/16 06:28:33;;;;;;;21.80;11.43;;;;;;;;;;4993358;28;20061;-85
2021/12/16 06:30:58;;;;;;;22.05;12.38;;;;;;;;;;4982373;28;20030;-86
2021/12/16 06:33:24;;;;;;;22.50;13.15;;;;;;;;;;4985126;28;20443;-85
2021/12/16 06:35:52;;;;;;;27.02;12.95;;;;;;;;;;4981138;28;20025;-85
2021/12/16 06:38:21;;;;;;;25.45;13.13;;;;;;;;;;4982797;28;20116;-85
2021/12/16 06:40:47;;;;;;;25.55;13.25;;;;;;;;;;4980906;28;20026;-86
2021/12/16 06:43:15;;;;;;;23.77;12.77;;;;;;;;;;5000690;28;20022;-85
2021/12/16 06:45:44;;;;;;;25.27;13.82;;;;;;;;;;4981937;28;20030;-85
2021/12/16 06:48:15;;;;;;;28.77;13.57;;;;;;;;;;4997557;28;20105;-85
2021/12/16 06:50:52;;;;;;;25.85;12.50;;;;;;;;;;4974138;28;20026;-84
2021/12/16 06:53:28;;;;;;;23.85;12.90;;;;;;;;;;4977824;28;20027;-85
2021/12/16 06:56:09;;;;;;;23.80;12.57;;;;;;;;;;4978270;28;20529;-85
2021/12/16 06:58:41;;;;;;;25.00;13.33;;;;;;;;;;4978576;28;20018;-84
2021/12/16 07:01:20;;;;;;;18.27;10.60;;;;;;;;;;4961732;28;20030;-84
2021/12/16 07:03:49;;;;;;;19.48;10.82;;;;;;;;;;4971082;28;20095;-85
2021/12/16 07:06:22;;;;;;;24.05;12.68;;;;;;;;;;4984012;28;20026;-84
2021/12/16 07:08:50;;;;;;;26.58;13.05;;;;;;;;;;4969765;28;20029;-83
2021/12/16 07:11:40;;;;;;;25.23;12.82;;;;;;;;;;4986587;28;20113;-84
2021/12/16 07:14:12;;;;;;;23.95;12.80;;;;;;;;;;4959852;28;20036;-84
2021/12/16 07:16:37;;;;;;;24.17;12.07;;;;;;;;;;4969315;28;20033;-86
2021/12/16 07:19:03;;;;;;;23.80;12.38;;;;;;;;;;4955631;28;20787;-84
2021/12/16 07:21:29;;;;;;;23.65;11.57;;;;;;;;;;4958787;28;20032;-86
2021/12/16 07:23:55;;;;;;;22.80;11.95;;;;;;;;;;4958612;28;20022;-84
2021/12/16 07:26:20;;;;;;;22.27;12.05;;;;;;;;;;4957842;28;20061;-86
2021/12/16 07:28:45;;;;;;;25.50;12.88;;;;;;;;;;4948828;28;20049;-84
2021/12/16 07:31:14;;;;;;;20.33;11.65;;;;;;;;;;4964880;28;20494;-85
2021/12/16 07:33:40;;;;;;;22.30;11.10;;;;;;;;;;4966018;28;20029;-87
2021/12/16 07:36:05;;;;;;;23.30;11.48;;;;;;;;;;4972714;28;20019;-87
2021/12/16 07:38:31;;;;;;;20.83;11.25;;;;;;;;;;4953959;28;20198;-87
2021/12/16 07:40:57;;;;;;;20.90;10.23;;;;;;;;;;4950728;28;20034;-87
2021/12/16 07:43:42;;;;;;;18.85;10.32;;;;;;;;;;4950060;28;20030;-86
2021/12/16 07:46:10;;;;;;;18.77;10.15;;;;;;;;;;4953521;28;20089;-87
2021/12/16 07:48:36;;;;;;;21.40;10.30;;;;;;;;;;4981996;28;20502;-87
2021/12/16 07:51:04;;;;;;;17.50;9.68;;;;;;;;;;4991792;28;20038;-82
2021/12/16 07:53:31;;;;;;;14.98;9.02;;;;;;;;;;4995015;28;20026;-84
2021/12/16 07:55:56;;;;;;;18.23;9.15;;;;;;;;;;4979452;28;20545;-86
2021/12/16 07:58:23;;;;;;;18.65;9.60;;;;;;;;;;4982714;28;20026;-84
2021/12/16 08:00:49;;;;;;;19.00;9.45;;;;;;;;;;4996611;28;20436;-83
2021/12/16 08:03:16;;;;;;;18.60;10.68;;;;;;;;;;4980889;28;20476;-85
2021/12/16 08:05:47;;;;;;;17.15;9.73;;;;;;;;;;4981605;28;20045;-82
2021/12/16 08:08:14;;;;;;;17.37;9.97;;;;;;;;;;4966827;28;20407;-86
2021/12/16 08:10:40;;;;;;;17.83;9.65;;;;;;;;;;4966318;28;20087;-87
2021/12/16 08:13:06;;;;;;;16.75;9.30;;;;;;;;;;4979652;28;20022;-85
2021/12/16 08:15:32;;;;;;;15.90;10.23;;;;;;;;;;4983387;28;20544;-84
2021/12/16 08:17:58;;;;;;;17.05;9.35;;;;;;;;;;4961802;28;20041;-84
2021/12/16 08:20:24;;;;;;;20.00;9.48;;;;;;;;;;4964636;28;20033;-84
2021/12/16 08:22:52;;;;;;;18.60;10.40;;;;;;;;;;4969762;28;20022;-85
2021/12/16 08:25:20;;;;;;;17.33;8.93;;;;;;;;;;4968505;28;20025;-85
2021/12/16 08:27:47;;;;;;;17.63;9.77;;;;;;;;;;4976131;28;20521;-86
2021/12/16 08:30:17;;;;;;;22.20;9.50;;;;;;;;;;4977547;28;20152;-87
2021/12/16 08:32:44;;;;;;;15.55;9.05;;;;;;;;;;4980447;28;20025;-86
2021/12/16 08:35:10;;;;;;;15.68;9.55;;;;;;;;;;4982691;28;20407;-84
2021/12/16 08:37:36;;;;;;;16.63;9.60;;;;;;;;;;4958483;28;20026;-84
2021/12/16 08:40:05;;;;;;;16.35;9.50;;;;;;;;;;4965390;28;20048;-86
2021/12/16 08:42:30;;;;;;;19.85;9.50;;;;;;;;;;4978105;28;20108;-83
2021/12/16 08:44:55;;;;;;;23.38;11.68;;;;;;;;;;4969615;28;20116;-85
2021/12/16 08:47:21;;;;;;;21.42;10.82;;;;;;;;;;4971841;28;23763;-85
2021/12/16 08:49:47;;;;;;;20.23;10.98;;;;;;;;;;4979741;28;20697;-83
2021/12/16 08:52:20;;;;;;;19.92;10.88;;;;;;;;;;4970512;23;20050;-87
2021/12/16 08:54:46;;;;;;;22.42;11.85;;;;;;;;;;4971528;28;20030;-85
2021/12/16 08:57:12;;;;;;;21.15;12.20;;;;;;;;;;4949323;28;20090;-82
2021/12/16 08:59:39;;;;;;;23.33;11.85;;;;;;;;;;4954935;28;20022;-86
2021/12/16 09:02:07;;;;;;;25.58;11.75;;;;;;;;;;4975562;28;20034;-87
2021/12/16 09:04:33;;;;;;;31.25;11.35;;;;;;;;;;4977977;28;20536;-84
2021/12/16 09:07:02;;;;;;;21.90;11.63;;;;;;;;;;4973244;28;20046;-83
2021/12/16 09:09:33;;;;;;;19.35;10.82;;;;;;;;;;4970701;28;20026;-87
2021/12/16 09:12:13;;;;;;;19.63;10.68;;;;;;;;;;4956076;28;20018;-86
2021/12/16 09:14:40;;;;;;;21.63;11.90;;;;;;;;;;4975168;28;20113;-84
2021/12/16 09:17:11;;;;;;;21.90;11.13;;;;;;;;;;4966169;28;20460;-84
2021/12/16 09:19:43;;;;;;;19.70;10.48;;;;;;;;;;4976746;28;20026;-87
2021/12/16 09:22:10;;;;;;;21.92;11.52;;;;;;;;;;4954863;28;20129;-85
2021/12/16 09:24:37;;;;;;;22.65;11.55;;;;;;;;;;4952029;28;20050;-85
2021/12/16 09:27:02;;;;;;;24.80;11.65;;;;;;;;;;4947228;28;20034;-83
2021/12/16 09:29:28;;;;;;;24.63;11.27;;;;;;;;;;4965785;28;20033;-87
2021/12/16 09:31:53;;;;;;;21.38;12.02;;;;;;;;;;4969877;28;20023;-84
2021/12/16 09:34:19;;;;;;;25.00;11.07;;;;;;;;;;4958700;28;20101;-86
2021/12/16 09:36:45;;;;;;;20.42;11.65;;;;;;;;;;4962434;28;20031;-87
2021/12/16 09:39:16;;;;;;;20.80;11.15;;;;;;;;;;4958305;28;20050;-86
2021/12/16 09:41:46;;;;;;;21.33;10.80;;;;;;;;;;4965957;28;21053;-82
2021/12/16 09:44:12;;;;;;;22.67;11.35;;;;;;;;;;4948040;28;20030;-85
2021/12/16 09:46:39;;;;;;;21.23;11.57;;;;;;;;;;4946026;28;20034;-84
2021/12/16 09:49:06;;;;;;;25.20;12.77;;;;;;;;;;4955555;28;20022;-87
2021/12/16 09:51:35;;;;;;;25.30;12.02;;;;;;;;;;4960649;28;20034;-83
2021/12/16 09:54:05;;;;;;;19.92;11.45;;;;;;;;;;4950180;28;20400;-85
2021/12/16 09:56:31;;;;;;;31.00;12.20;;;;;;;;;;4970957;28;20098;-84
2021/12/16 09:58:59;;;;;;;25.55;12.02;;;;;;;;;;4978186;28;20029;-84
2021/12/16 10:01:25;;;;;;;24.88;12.18;;;;;;;;;;4980013;28;20113;-82
2021/12/16 10:03:54;;;;;;;22.02;11.80;;;;;;;;;;4975743;28;20022;-83
2021/12/16 10:06:20;;;;;;;23.00;11.30;;;;;;;;;;4967360;28;20038;-84
2021/12/16 10:08:46;;;;;;;27.40;11.02;;;;;;;;;;4975642;28;20086;-84
2021/12/16 10:11:12;;;;;;;23.45;11.95;;;;;;;;;;4996585;28;20588;-84
2021/12/16 10:13:47;;;;;;;22.13;11.32;;;;;;;;;;4995906;28;20034;-85
2021/12/16 10:18:56;;;;;;;21.23;11.57;;;;;;;;;;4995667;28;20507;-83
2021/12/16 10:21:23;;;;;;;21.48;11.38;;;;;;;;;;4995219;28;20062;-84
2021/12/16 10:23:48;;;;;;;23.70;12.43;;;;;;;;;;4995207;28;20464;-83
2021/12/16 10:26:22;;;;;;;24.92;12.85;;;;;;;;;;4995187;28;20026;-84
2021/12/16 10:28:50;;;;;;;26.30;10.57;;;;;;;;;;4978216;28;20026;-84
2021/12/16 10:31:26;;;;;;;20.77;11.38;;;;;;;;;;4993141;28;20109;-84
2021/12/16 10:33:59;;;;;;;21.25;11.02;;;;;;;;;;4954924;28;20033;-87
2021/12/16 10:36:32;;;;;;;21.67;11.95;;;;;;;;;;4964021;28;20094;-85
2021/12/16 10:39:03;;;;;;;23.50;11.48;;;;;;;;;;4959262;28;20031;-85
2021/12/16 10:41:31;;;;;;;23.13;11.63;;;;;;;;;;4975959;28;20026;-85
2021/12/16 10:44:14;;;;;;;21.52;11.52;;;;;;;;;;4973763;28;20054;-85
2021/12/16 10:46:43;;;;;;;24.00;10.80;;;;;;;;;;4969381;28;20034;-85
2021/12/16 10:49:17;;;;;;;24.25;11.18;;;;;;;;;;4975353;28;20080;-84
2021/12/16 10:51:54;;;;;;;23.00;10.93;;;;;;;;;;4973351;28;20110;-84
2021/12/16 10:54:31;;;;;;;19.60;10.70;;;;;;;;;;4975555;28;20101;-83
2021/12/16 10:57:16;;;;;;;19.02;10.50;;;;;;;;;;4970302;28;20019;-83
2021/12/16 10:59:55;;;;;;;19.02;10.65;;;;;;;;;;4971286;28;22079;-84
2021/12/16 11:02:28;;;;;;;21.20;10.00;;;;;;;;;;4974630;28;20019;-84
2021/12/16 11:04:59;;;;;;;23.88;10.85;;;;;;;;;;4971577;28;20057;-83
2021/12/16 11:07:38;;;;;;;21.02;10.20;;;;;;;;;;4969486;28;20051;-84
2021/12/16 11:10:09;;;;;;;19.58;10.82;;;;;;;;;;4974498;28;20063;-84
2021/12/16 11:12:59;;;;;;;20.00;9.68;;;;;;;;;;4976329;28;20022;-83
2021/12/16 11:15:47;;;;;;;20.48;10.45;;;;;;;;;;4969289;28;20034;-82
2021/12/16 11:18:22;;;;;;;19.33;10.82;;;;;;;;;;4974098;28;20158;-84
2021/12/16 11:21:00;;;;;;;19.67;10.55;;;;;;;;;;4969844;28;20085;-83
2021/12/16 11:23:35;;;;;;;19.58;10.75;;;;;;;;;;4947110;28;20432;-86
2021/12/16 11:26:15;;;;;;;21.17;11.75;;;;;;;;;;4966568;28;20050;-84
2021/12/16 11:28:47;;;;;;;19.58;9.82;;;;;;;;;;4973494;28;20367;-84
2021/12/16 11:31:32;;;;;;;20.65;11.35;;;;;;;;;;4980735;28;20121;-84
2021/12/16 11:33:58;;;;;;;23.83;11.82;;;;;;;;;;4975830;28;20034;-86
2021/12/16 11:36:37;;;;;;;21.15;10.20;;;;;;;;;;4980537;28;20023;-84
2021/12/16 11:39:03;;;;;;;22.23;10.73;;;;;;;;;;4975504;28;20030;-85
2021/12/16 11:41:36;;;;;;;23.60;10.82;;;;;;;;;;4959356;28;20075;-85
2021/12/16 11:44:07;;;;;;;19.50;9.48;;;;;;;;;;4954653;28;20027;-84
2021/12/16 11:46:37;;;;;;;18.90;10.43;;;;;;;;;;4972211;28;20119;-86
2021/12/16 11:49:25;;;;;;;19.30;9.70;;;;;;;;;;4956624;28;20567;-84
2021/12/16 11:52:04;;;;;;;19.70;9.38;;;;;;;;;;4950142;28;20050;-84
2021/12/16 11:54:44;;;;;;;21.95;9.93;;;;;;;;;;4966588;28;20062;-86
2021/12/16 11:57:41;;;;;;;20.45;10.85;;;;;;;;;;4974285;28;20476;-84
2021/12/16 12:00:19;;;;;;;21.27;10.73;;;;;;;;;;4977050;28;20037;-85
2021/12/16 12:02:48;;;;;;;19.38;10.68;;;;;;;;;;4978555;28;20019;-85
2021/12/16 12:05:31;;;;;;;20.48;10.73;;;;;;;;;;4959730;28;20030;-85
2021/12/16 12:08:02;;;;;;;19.38;10.20;;;;;;;;;;4967292;28;20033;-85
2021/12/16 12:10:47;;;;;;;21.83;10.32;;;;;;;;;;4972541;28;20033;-85
2021/12/16 12:13:28;;;;;;;22.17;12.05;;;;;;;;;;4974705;28;20041;-84
2021/12/16 12:16:12;;;;;;;19.98;10.25;;;;;;;;;;4963443;28;20133;-85
2021/12/16 12:18:51;;;;;;;20.90;10.98;;;;;;;;;;4960922;28;20110;-85
2021/12/16 12:21:22;;;;;;;24.98;11.70;;;;;;;;;;4986530;28;20026;-86
2021/12/16 12:23:56;;;;;;;20.63;10.27;;;;;;;;;;4974619;28;20023;-86
2021/12/16 12:26:25;;;;;;;30.38;10.82;;;;;;;;;;4974310;28;20044;-86
2021/12/16 12:28:54;;;;;;;19.05;10.10;;;;;;;;;;4972107;28;20489;-85
2021/12/16 12:31:24;;;;;;;25.10;10.75;;;;;;;;;;4975544;28;20019;-86
2021/12/16 12:33:51;;;;;;;21.08;10.98;;;;;;;;;;4978597;28;20536;-87
2021/12/16 12:36:18;;;;;;;26.30;10.63;;;;;;;;;;4964513;28;20061;-88
2021/12/16 12:38:43;;;;;;;19.25;11.02;;;;;;;;;;4955004;28;20030;-86
2021/12/16 12:41:09;;;;;;;20.33;11.10;;;;;;;;;;4938275;28;20037;-86
2021/12/16 12:43:36;;;;;;;22.92;11.10;;;;;;;;;;4951931;28;20093;-88
2021/12/16 12:46:05;;;;;;;19.02;10.80;;;;;;;;;;4952548;28;24187;-84
2021/12/16 12:48:34;;;;;;;23.60;11.57;;;;;;;;;;4957221;28;20049;-88
2021/12/16 12:51:00;;;;;;;24.60;11.48;;;;;;;;;;4943858;28;20058;-89
2021/12/16 12:53:39;;;;;;;21.50;10.73;;;;;;;;;;4941438;28;20057;-87
2021/12/16 12:56:19;;;;;;;21.92;11.25;;;;;;;;;;4940949;28;20045;-88
2021/12/16 12:58:52;;;;;;;19.23;10.45;;;;;;;;;;4950709;28;20030;-88
2021/12/16 13:01:51;;;;;;;20.98;10.80;;;;;;;;;;4955661;28;20037;-88
2021/12/16 13:04:33;;;;;;;18.75;10.60;;;;;;;;;;4930041;28;20463;-87
2021/12/16 13:07:08;;;;;;;21.50;11.07;;;;;;;;;;4952395;28;20022;-87
2021/12/16 13:09:53;;;;;;;21.30;10.38;;;;;;;;;;4927492;28;20062;-88
2021/12/16 13:12:35;;;;;;;18.45;10.20;;;;;;;;;;4944038;28;20015;-87
2021/12/16 13:15:11;;;;;;;;;;;;;;;;;;4945753;28;20065;-88
2021/12/16 13:23:44;;;;;;;18.52;9.98;;;;;;;;;;4958703;28;20094;-86
2021/12/16 13:26:28;;;;;;;19.75;11.32;;;;;;;;;;4935629;28;20019;-85
2021/12/16 13:29:21;;;;;;;18.10;9.73;;;;;;;;;;4947120;28;20026;-86
2021/12/16 13:32:26;;;;;;;28.17;12.50;;;;;;;;;;4953997;28;20026;-88
2021/12/16 13:37:53;;;;;;;24.98;12.30;;;;;;;;;;4944850;28;20336;-88
2021/12/16 13:40:37;;;;;;;20.23;9.82;;;;;;;;;;4933951;28;20033;-86
2021/12/16 13:43:11;;;;;;;24.38;10.88;;;;;;;;;;4953648;28;20058;-83
2021/12/16 13:45:55;;;;;;;29.67;11.05;;;;;;;;;;4935628;28;20458;-87
2021/12/16 13:48:55;;;;;;;19.70;11.10;;;;;;;;;;4958038;28;20045;-87
2021/12/16 14:03:29;;;;;;;20.45;10.68;;;;;;;;;;4983088;28;20034;-84
2021/12/16 14:06:22;;;;;;;24.67;10.02;;;;;;;;;;4966623;28;20030;-90
2021/12/16 14:08:51;;;;;;;20.50;11.07;;;;;;;;;;4950320;28;20048;-87
2021/12/16 14:12:33;;;;;;;19.90;10.15;;;;;;;;;;4961482;28;20034;-90
2021/12/16 14:17:43;;;;;;;26.93;12.00;;;;;;;;;;4922147;28;20054;-88
2021/12/16 14:23:12;;;;;;;20.02;10.93;;;;;;;;;;4963747;28;20037;-88
2021/12/16 14:45:30;;;;;;;20.20;9.43;;;;;;;;;;4970347;28;20049;-87
2021/12/16 14:48:23;;;;;;;17.90;9.45;;;;;;;;;;4980835;28;20026;-86
2021/12/16 14:51:01;;;;;;;18.25;9.25;;;;;;;;;;4964794;28;20026;-88
2021/12/16 14:53:44;;;;;;;19.67;10.27;;;;;;;;;;4955027;28;20078;-90
2021/12/16 14:56:20;;;;;;;18.27;11.02;;;;;;;;;;4953295;28;20035;-87
2021/12/16 14:58:56;;;;;;;20.30;10.00;;;;;;;;;;4975334;28;20384;-88
2021/12/16 15:02:03;;;;;;;20.25;10.02;;;;;;;;;;4936794;28;20031;-88
2021/12/16 15:04:30;;;;;;;18.08;9.82;;;;;;;;;;4920639;28;20034;-86
2021/12/16 15:07:02;;;;;;;18.55;9.38;;;;;;;;;;4945549;28;21191;-87
2021/12/16 15:09:32;;;;;;;18.80;9.23;;;;;;;;;;4969056;28;20794;-86
2021/12/16 15:12:20;;;;;;;18.80;9.77;;;;;;;;;;4949338;28;20038;-87
2021/12/16 15:31:45;;;;;;;;;;;;;;;;;;4968817;28;20474;-87
2021/12/16 15:44:50;;;;;;;22.17;11.45;;;;;;;;;;4977771;28;20069;-88
2021/12/16 15:47:48;;;;;;;16.65;9.77;;;;;;;;;;4946200;28;20074;-88
2021/12/16 15:50:19;;;;;;;19.70;9.63;;;;;;;;;;4974978;28;20027;-88
2021/12/16 15:52:48;;;;;;;23.05;11.27;;;;;;;;;;4974770;28;20096;-85
2021/12/16 15:55:23;;;;;;;20.48;10.32;;;;;;;;;;4972551;28;20054;-86
2021/12/16 15:57:48;;;;;;;22.88;10.98;;;;;;;;;;4956225;28;20034;-87
2021/12/16 16:00:22;;;;;;;17.58;9.80;;;;;;;;;;4985960;28;20037;-85
2021/12/16 16:02:47;;;;;;;22.27;11.50;;;;;;;;;;4963552;28;20014;-84
2021/12/16 16:05:13;;;;;;;23.85;11.00;;;;;;;;;;4983797;28;20022;-84
2021/12/16 16:08:08;;;;;;;19.77;10.10;;;;;;;;;;4965514;28;20062;-87
2021/12/16 16:10:36;;;;;;;18.63;10.32;;;;;;;;;;4964930;28;20058;-81
2021/12/16 16:13:24;;;;;;;21.02;11.27;;;;;;;;;;4981218;28;20031;-85
2021/12/16 16:15:52;;;;;;;26.38;10.98;;;;;;;;;;4966039;28;20053;-83
2021/12/16 16:21:04;;;;;;;23.02;10.70;;;;;;;;;;4972699;28;20031;-88
2021/12/16 16:23:30;;;;;;;19.55;10.77;;;;;;;;;;4952862;28;20027;-88
2021/12/16 16:25:57;;;;;;;20.77;10.57;;;;;;;;;;4954378;28;20026;-84
2021/12/16 16:28:25;;;;;;;21.83;10.60;;;;;;;;;;4957946;28;20034;-85
2021/12/16 16:30:53;;;;;;;17.45;10.02;;;;;;;;;;4973616;28;20022;-85
2021/12/16 16:33:22;;;;;;;21.17;11.20;;;;;;;;;;4952513;28;20022;-86
2021/12/16 16:35:53;;;;;;;22.58;10.30;;;;;;;;;;4964396;28;20473;-86
2021/12/16 16:38:30;;;;;;;20.30;10.90;;;;;;;;;;4938415;28;20034;-88
2021/12/16 16:40:58;;;;;;;18.65;9.98;;;;;;;;;;4960537;28;20027;-88
2021/12/16 16:43:35;;;;;;;19.60;10.40;;;;;;;;;;4948540;28;20378;-88
2021/12/16 16:46:15;;;;;;;18.38;10.23;;;;;;;;;;4970134;28;20101;-88
2021/12/16 16:48:54;;;;;;;20.27;11.32;;;;;;;;;;4951831;28;20552;-87
2021/12/16 16:51:27;;;;;;;25.50;11.70;;;;;;;;;;4973869;28;20023;-89
2021/12/16 16:54:00;;;;;;;21.88;11.95;;;;;;;;;;4982101;28;20027;-87
2021/12/16 16:56:46;;;;;;;27.48;11.45;;;;;;;;;;4961113;28;20047;-88
2021/12/16 16:59:18;;;;;;;23.05;10.65;;;;;;;;;;4972627;28;20034;-81
2021/12/16 17:01:44;;;;;;;;;;;;;;;;;;4970350;28;20022;-84
2021/12/16 17:04:15;;;;;;;26.02;11.48;;;;;;;;;;4961984;28;20409;-87
2021/12/16 17:06:45;;;;;;;28.55;12.07;;;;;;;;;;4979994;28;20018;-88
2021/12/16 17:09:10;;;;;;;22.13;11.38;;;;;;;;;;4961832;28;20090;-89
2021/12/16 17:11:41;;;;;;;26.27;10.60;;;;;;;;;;4957489;28;20057;-89
2021/12/16 17:14:12;;;;;;;21.27;10.70;;;;;;;;;;4968832;28;20041;-87
2021/12/16 17:19:30;;;;;;;20.92;10.82;;;;;;;;;;4969359;28;20065;-86
2021/12/16 17:21:56;;;;;;;20.00;11.00;;;;;;;;;;4956170;28;20015;-88
2021/12/16 17:24:26;;;;;;;18.98;10.77;;;;;;;;;;4955415;28;20093;-81
2021/12/16 17:26:58;;;;;;;23.88;11.02;;;;;;;;;;4951870;28;20057;-86
2021/12/16 17:29:34;;;;;;;23.92;11.55;;;;;;;;;;4957606;28;20034;-86
2021/12/16 17:32:10;;;;;;;21.60;11.60;;;;;;;;;;4975084;28;20117;-85
2021/12/16 17:34:40;;;;;;;21.55;11.57;;;;;;;;;;4970804;28;20424;-86
2021/12/16 17:37:18;;;;;;;23.25;12.73;;;;;;;;;;4971592;28;20122;-82
2021/12/16 17:40:00;;;;;;;22.88;12.20;;;;;;;;;;4970780;28;20109;-86
2021/12/16 17:42:41;;;;;;;29.90;11.80;;;;;;;;;;4950503;28;20030;-87
2021/12/16 17:45:26;;;;;;;25.63;12.88;;;;;;;;;;4954495;28;20119;-88
2021/12/16 17:47:52;;;;;;;26.17;10.95;;;;;;;;;;4952970;28;23203;-82
2021/12/16 17:50:24;;;;;;;23.10;11.30;;;;;;;;;;4948692;28;20026;-86
2021/12/16 17:52:52;;;;;;;22.25;11.48;;;;;;;;;;4971362;28;20030;-86
2021/12/16 17:55:23;;;;;;;22.83;11.05;;;;;;;;;;4947265;28;20035;-87
2021/12/16 17:57:56;;;;;;;20.83;10.53;;;;;;;;;;4957706;28;20027;-85
2021/12/16 18:00:48;;;;;;;26.15;12.20;;;;;;;;;;4959749;28;20018;-86
2021/12/16 18:03:23;;;;;;;27.73;12.00;;;;;;;;;;4964404;28;20019;-86
2021/12/16 18:05:56;;;;;;;22.17;11.68;;;;;;;;;;4961048;28;20054;-81
2021/12/16 18:08:44;;;;;;;18.98;10.68;;;;;;;;;;4955369;28;20039;-85
2021/12/16 18:11:18;;;;;;;19.85;10.73;;;;;;;;;;4965944;28;20074;-85
2021/12/16 18:13:48;;;;;;;17.67;10.00;;;;;;;;;;4938393;28;20089;-84
2021/12/16 18:16:29;;;;;;;21.48;10.77;;;;;;;;;;4941503;28;20026;-86
2021/12/16 18:18:59;;;;;;;22.90;10.63;;;;;;;;;;4957552;28;20058;-88
2021/12/16 18:21:25;;;;;;;20.65;11.13;;;;;;;;;;4960326;28;20401;-86
2021/12/16 18:23:57;;;;;;;21.60;11.40;;;;;;;;;;4945925;28;20026;-86
2021/12/16 18:26:28;;;;;;;19.52;10.85;;;;;;;;;;4954873;28;21046;-79
2021/12/16 18:28:55;;;;;;;24.48;10.43;;;;;;;;;;4944593;28;20056;-85
2021/12/16 18:31:28;;;;;;;23.33;10.80;;;;;;;;;;4958940;28;20053;-88
2021/12/16 18:33:56;;;;;;;23.90;10.88;;;;;;;;;;4957617;28;20033;-87
2021/12/16 18:36:31;;;;;;;24.02;12.25;;;;;;;;;;4940837;28;20040;-81
2021/12/16 18:39:19;;;;;;;18.45;11.25;;;;;;;;;;4946130;28;20142;-85
2021/12/16 18:41:49;;;;;;;27.15;11.30;;;;;;;;;;4915617;28;20254;-84
2021/12/16 18:44:30;;;;;;;33.28;11.23;;;;;;;;;;4944412;28;20151;-86
2021/12/16 18:46:58;;;;;;;23.63;11.15;;;;;;;;;;4925098;28;20022;-87
2021/12/16 18:49:35;;;;;;;22.17;11.63;;;;;;;;;;4956432;28;20388;-83